createdAt,value
2019-02-28T00:02:04.847Z,34.77
2019-02-28T00:04:33.198Z,28.07
2019-02-28T00:07:01.559Z,29.13
2019-02-28T00:09:29.921Z,29.13
2019-02-28T00:12:00.479Z,31.83
2019-02-28T00:14:28.834Z,34.63
2019-02-28T00:16:57.393Z,27.63
2019-02-28T00:19:25.762Z,29.87
2019-02-28T00:21:54.124Z,34.70
2019-02-28T00:24:22.484Z,27.47
2019-02-28T00:26:50.848Z,25.90
2019-02-28T00:29:19.358Z,29.83
2019-02-28T00:31:50.027Z,26.73
2019-02-28T00:34:17.686Z,32.27
2019-02-28T00:36:46.027Z,31.63
2019-02-28T00:39:14.386Z,29.27
2019-02-28T00:41:44.480Z,34.97
2019-02-28T00:44:12.748Z,35.60
2019-02-28T00:46:45.225Z,27.87
2019-02-28T00:49:11.252Z,30.53
2019-02-28T00:51:39.587Z,30.73
2019-02-28T00:54:08.534Z,32.67
2019-02-28T00:56:37.786Z,28.57
2019-02-28T00:59:06.136Z,33.67
2019-02-28T01:01:34.508Z,31.73
2019-02-28T01:04:02.845Z,28.10
2019-02-28T01:06:31.178Z,30.97
2019-02-28T01:08:59.510Z,28.97
2019-02-28T01:11:27.855Z,34.67
2019-02-28T01:13:58.046Z,28.27
2019-02-28T01:16:26.214Z,30.63
2019-02-28T01:18:54.666Z,31.07
2019-02-28T01:21:23.932Z,31.70
2019-02-28T01:23:53.016Z,34.53
2019-02-28T01:26:21.370Z,34.57
2019-02-28T01:28:49.742Z,32.00
2019-02-28T01:31:18.088Z,27.93
2019-02-28T01:33:46.437Z,30.80
2019-02-28T01:36:15.642Z,31.23
2019-02-28T01:38:44.802Z,33.87
2019-02-28T01:41:13.228Z,33.80
2019-02-28T01:43:41.562Z,33.10
2019-02-28T01:46:10.002Z,32.20
2019-02-28T01:48:38.342Z,34.50
2019-02-28T01:51:06.695Z,29.87
2019-02-28T01:53:35.076Z,33.47
2019-02-28T01:56:03.545Z,31.77
2019-02-28T01:58:31.880Z,30.43
2019-02-28T02:01:00.208Z,31.97
2019-02-28T02:03:28.552Z,29.00
2019-02-28T02:05:56.897Z,34.23
2019-02-28T02:08:25.319Z,31.80
2019-02-28T02:10:55.964Z,36.13
2019-02-28T02:13:23.805Z,29.30
2019-02-28T02:15:52.157Z,25.07
2019-02-28T02:18:20.507Z,28.37
2019-02-28T02:20:48.886Z,33.83
2019-02-28T02:23:18.202Z,34.53
2019-02-28T02:25:47.376Z,35.23
2019-02-28T02:28:15.717Z,27.47
2019-02-28T02:30:50.481Z,27.83
2019-02-28T02:33:15.511Z,32.10
2019-02-28T02:35:44.081Z,33.63
2019-02-28T02:38:12.415Z,31.63
2019-02-28T02:40:40.751Z,33.43
2019-02-28T02:43:11.887Z,28.93
2019-02-28T02:45:43.460Z,32.83
2019-02-28T02:48:10.237Z,32.73
2019-02-28T02:50:38.587Z,28.17
2019-02-28T02:53:07.050Z,30.57
2019-02-28T02:55:35.440Z,28.47
2019-02-28T02:58:03.812Z,28.77
2019-02-28T03:00:32.144Z,30.53
2019-02-28T03:03:00.463Z,31.33
2019-02-28T03:05:35.321Z,30.17
2019-02-28T03:08:00.057Z,40.00
2019-02-28T03:10:28.791Z,36.63
2019-02-28T03:12:57.138Z,32.53
2019-02-28T03:18:47.251Z,35.90
2019-02-28T03:21:16.504Z,34.50
2019-02-28T03:23:45.212Z,35.17
2019-02-28T03:26:13.531Z,31.27
2019-02-28T03:28:41.872Z,34.80
2019-02-28T03:31:14.420Z,31.17
2019-02-28T03:33:40.203Z,35.57
2019-02-28T03:36:08.529Z,44.30
2019-02-28T03:38:36.854Z,35.63
2019-02-28T03:41:05.278Z,36.77
2019-02-28T03:43:33.725Z,39.23
2019-02-28T03:46:02.071Z,40.13
2019-02-28T03:48:34.667Z,38.00
2019-02-28T03:51:00.385Z,39.70
2019-02-28T03:53:28.723Z,38.40
2019-02-28T03:55:57.155Z,34.23
2019-02-28T03:58:25.499Z,36.33
2019-02-28T04:00:53.922Z,35.40
2019-02-28T04:03:22.247Z,37.73
2019-02-28T04:05:50.599Z,36.50
2019-02-28T04:08:18.942Z,41.83
2019-02-28T04:10:47.290Z,37.83
2019-02-28T04:13:19.130Z,41.67
2019-02-28T04:16:02.442Z,51.13
2019-02-28T04:18:15.802Z,36.70
2019-02-28T04:20:44.174Z,37.50
2019-02-28T04:23:12.630Z,36.17
2019-02-28T04:25:41.006Z,34.27
2019-02-28T04:28:09.363Z,37.67
2019-02-28T04:30:42.580Z,37.90
2019-02-28T04:33:07.779Z,41.80
2019-02-28T04:35:36.229Z,41.67
2019-02-28T04:38:04.689Z,36.73
2019-02-28T04:40:33.011Z,36.73
2019-02-28T04:43:01.374Z,38.23
2019-02-28T04:45:29.724Z,42.77
2019-02-28T04:47:58.588Z,40.10
2019-02-28T04:50:31.251Z,35.97
2019-02-28T04:52:57.268Z,36.13
2019-02-28T04:55:25.590Z,32.60
2019-02-28T04:57:54.040Z,30.70
2019-02-28T05:00:22.431Z,29.40
2019-02-28T05:02:53.868Z,28.33
2019-02-28T05:05:20.750Z,31.77
2019-02-28T05:07:49.103Z,29.80
2019-02-28T05:10:19.273Z,30.53
2019-02-28T05:12:47.408Z,38.43
2019-02-28T05:15:15.858Z,32.03
2019-02-28T05:17:44.166Z,29.60
2019-02-28T05:20:12.852Z,33.17
2019-02-28T05:22:41.268Z,32.03
2019-02-28T05:25:09.751Z,36.43
2019-02-28T05:27:38.097Z,32.00
2019-02-28T05:30:07.682Z,34.20
2019-02-28T05:32:36.379Z,29.77
2019-02-28T05:35:04.916Z,38.50
2019-02-28T05:37:33.244Z,30.03
2019-02-28T05:40:05.415Z,32.93
2019-02-28T05:42:31.563Z,40.87
2019-02-28T05:44:59.895Z,27.90
2019-02-28T05:47:29.372Z,37.00
2019-02-28T05:49:58.216Z,35.60
2019-02-28T05:52:26.550Z,33.23
2019-02-28T05:54:54.886Z,31.93
2019-02-28T05:57:23.255Z,32.73
2019-02-28T05:59:51.588Z,35.87
2019-02-28T06:02:22.578Z,39.10
2019-02-28T06:04:49.942Z,41.43
2019-02-28T06:07:18.278Z,34.50
2019-02-28T06:09:48.663Z,36.17
2019-02-28T06:12:16.607Z,35.73
2019-02-28T06:14:44.932Z,37.93
2019-02-28T06:17:13.368Z,36.40
2019-02-28T06:19:43.457Z,37.23
2019-02-28T06:22:12.284Z,32.20
2019-02-28T06:24:40.626Z,40.07
2019-02-28T06:27:08.954Z,35.07
2019-02-28T06:29:37.584Z,30.80
2019-02-28T06:32:06.178Z,34.63
2019-02-28T06:34:34.512Z,34.07
2019-02-28T06:37:03.583Z,34.67
2019-02-28T06:39:33.352Z,31.13
2019-02-28T06:42:01.683Z,32.80
2019-02-28T06:44:30.042Z,37.83
2019-02-28T06:46:58.455Z,34.60
2019-02-28T06:49:27.315Z,41.30
2019-02-28T06:51:55.832Z,34.63
2019-02-28T06:54:24.623Z,36.40
2019-02-28T06:56:54.121Z,35.57
2019-02-28T06:59:22.942Z,35.77
2019-02-28T07:01:56.644Z,41.43
2019-02-28T07:04:21.316Z,37.60
2019-02-28T07:06:49.682Z,38.47
2019-02-28T07:09:18.059Z,40.13
2019-02-28T07:11:46.399Z,41.20
2019-02-28T07:14:14.803Z,41.83
2019-02-28T07:16:43.153Z,35.20
2019-02-28T07:19:11.515Z,31.20
2019-02-28T07:21:43.899Z,40.30
2019-02-28T07:24:10.326Z,38.03
2019-02-28T07:26:38.656Z,32.93
2019-02-28T07:29:11.131Z,37.60
2019-02-28T07:31:37.099Z,33.73
2019-02-28T07:34:05.498Z,48.43
2019-02-28T07:36:33.866Z,56.23
2019-02-28T07:39:04.462Z,55.40
2019-02-28T07:41:32.229Z,40.23
2019-02-28T07:44:00.568Z,46.67
2019-02-28T07:46:28.900Z,44.67
2019-02-28T07:48:57.248Z,52.00
2019-02-28T07:51:26.414Z,51.53
2019-02-28T07:53:55.256Z,65.53
2019-02-28T07:56:23.954Z,68.83
2019-02-28T07:58:52.454Z,53.60
2019-02-28T08:01:20.800Z,54.23
2019-02-28T08:03:49.134Z,44.87
2019-02-28T08:06:17.520Z,36.93
2019-02-28T08:08:45.995Z,42.83
2019-02-28T08:11:14.343Z,42.33
2019-02-28T08:13:42.695Z,57.80
2019-02-28T08:16:11.051Z,72.70
2019-02-28T08:18:39.475Z,34.90
2019-02-28T08:21:08.706Z,40.47
2019-02-28T08:23:37.882Z,41.33
2019-02-28T08:26:06.231Z,38.90
2019-02-28T08:28:36.744Z,44.27
2019-02-28T08:31:04.663Z,39.43
2019-02-28T08:33:33.011Z,40.83
2019-02-28T08:36:01.332Z,40.40
2019-02-28T08:38:30.108Z,49.17
2019-02-28T08:40:59.667Z,48.90
2019-02-28T08:43:28.091Z,45.80
2019-02-28T08:45:56.739Z,38.70
2019-02-28T08:48:25.095Z,39.17
2019-02-28T08:50:55.795Z,35.97
2019-02-28T08:53:24.665Z,34.37
2019-02-28T08:55:53.470Z,40.70
2019-02-28T08:58:22.154Z,41.17
2019-02-28T09:00:51.085Z,42.83
2019-02-28T09:03:20.145Z,43.97
2019-02-28T09:05:48.992Z,40.97
2019-02-28T09:08:17.622Z,38.60
2019-02-28T09:10:47.136Z,38.87
2019-02-28T09:13:16.672Z,41.67
2019-02-28T09:15:45.691Z,44.00
2019-02-28T09:18:14.351Z,40.87
2019-02-28T09:20:45.101Z,41.50
2019-02-28T09:23:12.686Z,37.87
2019-02-28T09:25:41.001Z,41.60
2019-02-28T09:28:10.156Z,43.07
2019-02-28T09:30:39.934Z,38.70
2019-02-28T09:33:08.280Z,48.17
2019-02-28T09:35:36.615Z,38.53
2019-02-28T09:38:07.619Z,46.30
2019-02-28T09:40:35.195Z,40.43
2019-02-28T09:43:03.861Z,40.77
2019-02-28T09:45:33.057Z,43.83
2019-02-28T09:48:02.365Z,51.73
2019-02-28T09:50:33.092Z,46.17
2019-02-28T09:53:01.937Z,42.63
2019-02-28T09:55:34.291Z,44.93
2019-02-28T09:58:00.565Z,44.17
2019-02-28T10:00:29.402Z,51.43
2019-02-28T10:02:58.366Z,51.33
2019-02-28T10:05:27.084Z,49.17
2019-02-28T10:08:01.538Z,41.30
2019-02-28T10:10:26.697Z,44.40
2019-02-28T10:12:56.866Z,44.83
2019-02-28T10:15:25.165Z,42.30
2019-02-28T10:17:53.506Z,45.77
2019-02-28T10:20:26.320Z,42.73
2019-02-28T10:22:53.557Z,44.83
2019-02-28T10:25:21.948Z,41.20
2019-02-28T10:27:51.094Z,40.40
2019-02-28T10:30:30.808Z,39.10
2019-02-28T10:32:50.496Z,38.57
2019-02-28T10:35:19.750Z,50.87
2019-02-28T10:37:48.410Z,47.17
2019-02-28T10:40:18.713Z,41.53
2019-02-28T10:42:49.482Z,47.70
2019-02-28T10:45:18.274Z,36.10
2019-02-28T10:47:46.770Z,35.47
2019-02-28T10:50:16.687Z,36.13
2019-02-28T10:52:45.351Z,38.87
2019-02-28T10:55:14.845Z,32.33
2019-02-28T10:57:43.912Z,36.93
2019-02-28T11:00:14.152Z,35.27
2019-02-28T11:02:43.334Z,36.93
2019-02-28T11:05:18.846Z,38.13
2019-02-28T11:07:46.239Z,39.97
2019-02-28T11:10:15.979Z,36.20
2019-02-28T11:12:45.023Z,37.73
2019-02-28T11:15:14.775Z,29.00
2019-02-28T11:17:44.632Z,31.80
2019-02-28T11:20:21.815Z,32.27
2019-02-28T11:22:44.537Z,34.17
2019-02-28T11:25:13.490Z,30.30
2019-02-28T11:27:42.338Z,26.43
2019-02-28T11:30:13.343Z,31.77
2019-02-28T11:32:42.382Z,26.47
2019-02-28T11:35:11.508Z,26.63
2019-02-28T11:37:44.979Z,31.53
2019-02-28T11:40:11.423Z,28.97
2019-02-28T11:42:40.390Z,34.03
2019-02-28T11:45:12.767Z,23.47
2019-02-28T11:47:42.695Z,26.10
2019-02-28T11:50:11.946Z,22.90
2019-02-28T11:52:41.107Z,23.93
2019-02-28T11:55:10.423Z,27.43
2019-02-28T11:57:41.248Z,24.40
2019-02-28T12:00:13.459Z,19.73
2019-02-28T12:02:42.156Z,23.03
2019-02-28T12:05:12.318Z,22.47
2019-02-28T12:07:41.601Z,20.77
2019-02-28T12:10:10.242Z,19.57
2019-02-28T12:12:41.609Z,18.40
2019-02-28T12:15:09.523Z,18.33
2019-02-28T12:17:38.477Z,21.70
2019-02-28T12:20:07.822Z,22.37
2019-02-28T12:22:37.122Z,22.37
2019-02-28T12:25:07.656Z,17.60
2019-02-28T12:27:37.159Z,23.27
2019-02-28T12:30:06.563Z,23.80
2019-02-28T12:32:35.237Z,21.37
2019-02-28T12:35:04.243Z,19.90
2019-02-28T12:37:34.398Z,20.97
2019-02-28T12:40:03.872Z,20.37
2019-02-28T12:42:34.638Z,18.73
2019-02-28T12:45:03.038Z,13.27
2019-02-28T12:47:35.255Z,15.53
2019-02-28T12:50:05.063Z,14.83
2019-02-28T12:52:33.398Z,25.77
2019-02-28T12:55:03.992Z,17.63
2019-02-28T12:57:32.108Z,18.97
2019-02-28T13:00:00.854Z,18.40
2019-02-28T13:02:29.191Z,16.97
2019-02-28T13:04:57.815Z,14.27
2019-02-28T13:07:26.863Z,10.63
2019-02-28T13:09:55.867Z,7.40
2019-02-28T13:12:24.632Z,5.17
2019-02-28T13:14:54.743Z,6.93
2019-02-28T13:17:23.880Z,3.67
2019-02-28T13:19:53.159Z,6.33
2019-02-28T13:22:23.639Z,4.87
2019-02-28T13:24:52.671Z,8.33
2019-02-28T13:27:21.124Z,3.40
2019-02-28T13:29:49.436Z,5.53
2019-02-28T13:32:17.755Z,3.23
2019-02-28T13:34:46.177Z,4.67
2019-02-28T13:37:14.506Z,2.97
2019-02-28T13:39:44.713Z,4.80
2019-02-28T13:42:12.828Z,4.50
2019-02-28T13:44:41.175Z,2.93
2019-02-28T13:47:10.716Z,8.23
2019-02-28T13:49:39.541Z,2.87
2019-02-28T13:52:08.121Z,7.37
2019-02-28T13:54:38.080Z,2.43
2019-02-28T13:57:09.794Z,4.03
2019-02-28T13:59:36.823Z,2.57
2019-02-28T14:02:05.490Z,4.10
2019-02-28T14:04:34.252Z,9.20
2019-02-28T14:07:02.899Z,4.80
2019-02-28T14:09:31.614Z,5.33
2019-02-28T14:12:00.823Z,7.47
2019-02-28T14:14:29.590Z,4.53
2019-02-28T14:17:01.321Z,8.73
2019-02-28T14:19:29.050Z,4.33
2019-02-28T14:21:57.867Z,6.97
2019-02-28T14:24:27.626Z,2.90
2019-02-28T14:26:57.080Z,3.93
2019-02-28T14:29:25.915Z,4.87
2019-02-28T14:31:54.550Z,3.87
2019-02-28T14:34:26.220Z,5.07
2019-02-28T14:36:53.586Z,5.23
2019-02-28T14:39:22.607Z,3.47
2019-02-28T14:41:51.372Z,3.40
2019-02-28T14:44:20.084Z,3.03
2019-02-28T14:46:49.771Z,3.13
2019-02-28T14:49:19.543Z,9.20
2019-02-28T14:51:48.180Z,4.70
2019-02-28T14:54:16.870Z,7.60
2019-02-28T14:56:45.641Z,9.13
2019-02-28T14:59:14.157Z,2.97
2019-02-28T15:01:43.215Z,3.93
2019-02-28T15:04:11.931Z,5.33
2019-02-28T15:06:40.592Z,5.73
2019-02-28T15:09:14.899Z,5.60
2019-02-28T15:11:47.162Z,3.83
2019-02-28T15:14:14.449Z,8.07
2019-02-28T15:16:42.864Z,2.97
2019-02-28T15:19:11.610Z,10.20
2019-02-28T15:21:42.747Z,5.93
2019-02-28T15:24:11.436Z,9.77
2019-02-28T15:26:40.123Z,11.67
2019-02-28T15:29:09.307Z,6.23
2019-02-28T15:31:40.443Z,9.67
2019-02-28T15:34:08.379Z,15.60
2019-02-28T15:36:37.373Z,7.73
2019-02-28T15:39:07.175Z,7.00
2019-02-28T15:41:36.407Z,6.90
2019-02-28T15:44:05.443Z,7.80
2019-02-28T15:46:35.959Z,9.23
2019-02-28T15:49:06.561Z,11.90
2019-02-28T15:51:35.618Z,8.97
2019-02-28T15:54:04.334Z,7.27
2019-02-28T15:56:36.909Z,9.20
2019-02-28T15:59:05.754Z,5.17
2019-02-28T16:01:34.572Z,15.03
2019-02-28T16:04:03.219Z,7.07
2019-02-28T16:06:32.126Z,9.03
2019-02-28T16:09:00.875Z,4.20
2019-02-28T16:11:30.079Z,7.57
2019-02-28T16:14:00.458Z,9.13
2019-02-28T16:16:29.539Z,6.27
2019-02-28T16:18:58.359Z,12.53
2019-02-28T16:21:27.403Z,5.23
2019-02-28T16:23:56.747Z,5.33
2019-02-28T16:26:25.339Z,12.53
2019-02-28T16:28:54.659Z,5.23
2019-02-28T16:31:23.490Z,5.57
2019-02-28T16:33:52.150Z,8.73
2019-02-28T16:36:22.128Z,6.13
2019-02-28T16:38:51.382Z,8.80
2019-02-28T16:41:20.400Z,6.57
2019-02-28T16:43:49.066Z,4.37
2019-02-28T16:46:17.906Z,5.23
2019-02-28T16:48:46.738Z,9.00
2019-02-28T16:51:15.379Z,7.23
2019-02-28T16:53:47.959Z,4.30
2019-02-28T16:56:16.029Z,5.17
2019-02-28T16:58:44.599Z,5.73
2019-02-28T17:01:13.431Z,7.07
2019-02-28T17:03:42.809Z,6.67
2019-02-28T17:06:11.499Z,5.37
2019-02-28T17:08:48.246Z,7.50
2019-02-28T17:11:18.264Z,4.60
2019-02-28T17:13:53.870Z,7.93
2019-02-28T17:16:33.707Z,5.33
2019-02-28T17:19:02.101Z,5.40
2019-02-28T17:21:30.850Z,6.77
2019-02-28T17:23:59.964Z,4.03
2019-02-28T17:26:46.970Z,2.57
2019-02-28T17:29:25.114Z,4.07
2019-02-28T17:31:55.410Z,3.07
2019-02-28T17:34:25.186Z,2.93
2019-02-28T17:36:54.423Z,1.93
2019-02-28T17:39:23.464Z,8.30
2019-02-28T17:41:52.773Z,5.83
2019-02-28T17:44:40.959Z,5.57
2019-02-28T17:47:16.916Z,5.33
2019-02-28T17:50:05.569Z,2.50
2019-02-28T17:52:42.215Z,3.63
2019-02-28T17:55:31.067Z,69.77
2019-02-28T17:58:24.892Z,190.10
2019-02-28T18:01:07.147Z,234.07
2019-02-28T18:03:57.951Z,474.67
2019-02-28T18:06:47.281Z,231.20
2019-02-28T18:09:49.431Z,250.87
2019-02-28T18:12:49.931Z,274.43
2019-02-28T18:15:23.945Z,132.77
2019-02-28T18:18:10.346Z,66.17
2019-02-28T18:21:17.496Z,93.53
2019-02-28T18:24:06.842Z,25.47
2019-02-28T18:26:53.768Z,60.10
2019-02-28T18:29:34.197Z,34.73
2019-02-28T18:32:03.375Z,9.57
2019-02-28T18:34:33.434Z,10.77
2019-02-28T18:37:02.129Z,5.97
2019-02-28T18:39:30.807Z,12.63
2019-02-28T18:41:59.494Z,18.83
2019-02-28T18:44:28.309Z,38.67
2019-02-28T18:46:56.991Z,49.83
2019-02-28T18:49:26.685Z,80.60
2019-02-28T18:51:55.960Z,52.63
2019-02-28T18:54:24.647Z,329.70
2019-02-28T18:56:53.359Z,104.90
2019-02-28T18:59:22.137Z,62.07
2019-02-28T19:01:50.819Z,18.10
2019-02-28T19:04:19.637Z,7.90
2019-02-28T19:06:48.493Z,174.23
2019-02-28T19:09:23.790Z,22.87
2019-02-28T19:11:52.884Z,5.40
2019-02-28T19:14:21.693Z,3.93
2019-02-28T19:16:50.470Z,4.73
2019-02-28T19:19:19.145Z,4.90
2019-02-28T19:21:47.831Z,4.33
2019-02-28T19:24:16.519Z,6.20
2019-02-28T19:26:45.208Z,7.43
2019-02-28T19:29:13.877Z,6.03
2019-02-28T19:31:42.559Z,6.87
2019-02-28T19:34:11.268Z,10.77
2019-02-28T19:36:40.753Z,5.97
2019-02-28T19:39:09.437Z,9.97
2019-02-28T19:41:38.131Z,8.73
2019-02-28T19:44:06.817Z,4.33
2019-02-28T19:46:35.509Z,4.70
2019-02-28T19:49:04.175Z,5.50
2019-02-28T19:51:33.356Z,6.30
2019-02-28T19:54:02.176Z,8.17
2019-02-28T19:56:31.303Z,8.10
2019-02-28T19:58:59.975Z,3.53
2019-02-28T20:01:28.658Z,3.27
2019-02-28T20:03:57.356Z,8.10
2019-02-28T20:06:26.051Z,7.73
2019-02-28T20:08:54.780Z,5.63
2019-02-28T20:11:23.463Z,4.70
2019-02-28T20:13:52.158Z,4.70
2019-02-28T20:16:20.975Z,9.20
2019-02-28T20:18:50.495Z,6.73
2019-02-28T20:21:19.409Z,6.77
2019-02-28T20:23:49.117Z,4.63
2019-02-28T20:26:18.046Z,10.23
2019-02-28T20:28:47.495Z,3.03
2019-02-28T20:31:17.128Z,6.03
2019-02-28T20:33:45.887Z,8.97
2019-02-28T20:36:15.124Z,5.73
2019-02-28T20:38:44.724Z,5.80
2019-02-28T20:41:15.917Z,7.27
2019-02-28T20:43:44.628Z,5.43
2019-02-28T20:46:13.315Z,3.03
2019-02-28T20:48:42.002Z,6.00
2019-02-28T20:51:10.697Z,6.17
2019-02-28T20:53:39.521Z,10.67
2019-02-28T20:56:08.282Z,4.63
2019-02-28T20:58:37.069Z,5.30
2019-02-28T21:01:05.864Z,4.50
2019-02-28T21:03:34.527Z,4.30
2019-02-28T21:06:03.219Z,5.73
2019-02-28T21:08:31.867Z,4.00
2019-02-28T21:11:00.668Z,6.93
2019-02-28T21:13:29.800Z,4.03
2019-02-28T21:15:58.486Z,4.47
2019-02-28T21:18:27.135Z,5.63
2019-02-28T21:20:55.774Z,6.70
2019-02-28T21:23:24.340Z,4.80
2019-02-28T21:25:52.721Z,5.97
2019-02-28T21:28:21.195Z,6.73
2019-02-28T21:30:49.578Z,5.80
2019-02-28T21:33:17.950Z,6.83
2019-02-28T21:35:46.382Z,8.23
2019-02-28T21:38:14.806Z,3.63
2019-02-28T21:40:43.195Z,5.83
2019-02-28T21:43:11.519Z,7.33
2019-02-28T21:45:39.967Z,5.43
2019-02-28T21:48:08.411Z,4.90
2019-02-28T21:50:36.828Z,6.80
2019-02-28T21:53:05.262Z,4.03
2019-02-28T21:55:33.587Z,7.90
2019-02-28T21:58:01.927Z,8.60
2019-02-28T22:00:30.469Z,8.93
2019-02-28T22:02:58.790Z,6.47
2019-02-28T22:05:27.125Z,10.97
2019-02-28T22:07:55.438Z,11.70
2019-02-28T22:10:23.852Z,4.50
2019-02-28T22:12:52.190Z,7.47
2019-02-28T22:15:20.518Z,8.40
2019-02-28T22:17:48.979Z,8.43
2019-02-28T22:20:17.415Z,9.30
2019-02-28T22:22:45.854Z,5.10
2019-02-28T22:25:14.325Z,8.47
2019-02-28T22:27:43.143Z,9.63
2019-02-28T22:30:31.759Z,9.57
2019-02-28T22:33:01.939Z,6.53
2019-02-28T22:35:33.715Z,8.37
2019-02-28T22:38:02.050Z,11.90
2019-02-28T22:40:30.378Z,8.87
2019-02-28T22:42:59.299Z,10.87
2019-02-28T22:45:27.615Z,9.03
2019-02-28T22:47:55.939Z,8.83
2019-02-28T22:50:24.301Z,9.37
2019-02-28T22:52:53.883Z,8.47
2019-02-28T22:55:22.195Z,8.67
2019-02-28T22:57:50.548Z,7.17
2019-02-28T23:00:28.421Z,8.33
2019-02-28T23:02:56.739Z,7.87
2019-02-28T23:05:25.070Z,7.43
2019-02-28T23:07:53.395Z,7.93
2019-02-28T23:10:21.723Z,7.60
2019-02-28T23:12:50.135Z,9.00
2019-02-28T23:15:18.490Z,18.33
2019-02-28T23:17:46.818Z,7.93
2019-02-28T23:20:15.213Z,5.70
2019-02-28T23:22:43.523Z,5.37
2019-02-28T23:25:11.947Z,6.13
2019-02-28T23:27:40.304Z,8.47
2019-02-28T23:30:26.182Z,7.03
2019-02-28T23:32:59.398Z,6.90
2019-02-28T23:35:32.146Z,6.00
2019-02-28T23:38:00.483Z,7.40
2019-02-28T23:40:28.823Z,9.17
2019-02-28T23:42:57.157Z,7.13
2019-02-28T23:45:26.080Z,8.13
2019-02-28T23:47:54.411Z,7.87
2019-02-28T23:50:22.730Z,8.13
2019-02-28T23:52:51.057Z,8.73
2019-02-28T23:55:19.472Z,6.07
2019-02-28T23:57:47.808Z,4.77
